Time;durP1;ratioP1;P1;durP2;ratioP2;P2;SDS_P1;SDS_P2;PMS_P1;PMS_P2;Temp;Humidity;BMP_temperature;BMP_pressure;BME280_temperature;BME280_humidity;BME280_pressure;Samples;Min_cycle;Max_cycle;Signal;HPM_P1;HPM_P2
2022/01/26 00:00:54;;;;;;;18.90;9.27;;;-3.30;54.60;;;-3.85;46.16;95758.38;4967361;28;20475;-58
2022/01/26 00:06:12;;;;;;;23.20;11.30;;;-3.30;54.50;;;-3.86;45.49;95770.38;5040760;28;20492;-58
2022/01/26 00:08:39;;;;;;;16.03;10.30;;;-3.30;54.50;;;-3.87;46.41;95767.81;5039451;28;20447;-58
2022/01/26 00:11:07;;;;;;;19.90;10.23;;;-3.30;55.10;;;-3.88;45.28;95769.56;5040099;28;20472;-58
2022/01/26 00:13:34;;;;;;;20.83;10.00;;;-3.30;54.40;;;-3.91;45.14;95766.22;5040921;28;20884;-57
2022/01/26 00:16:04;;;;;;;28.83;14.70;;;-3.40;54.30;;;-3.93;46.07;95765.38;5036715;28;20469;-58
2022/01/26 00:18:35;;;;;;;27.90;11.63;;;-3.40;54.20;;;-3.97;45.85;95762.91;5040556;28;20495;-58
2022/01/26 00:21:09;;;;;;;25.40;11.63;;;-3.40;54.40;;;-4.00;45.63;95755.25;5043880;28;20476;-58
2022/01/26 00:24:05;;;;;;;22.70;11.70;;;-3.40;54.50;;;-4.04;46.27;95756.19;5038441;28;20445;-58
2022/01/26 00:26:38;;;;;;;26.43;12.90;;;-3.40;54.50;;;-4.05;45.73;95743.38;5040500;28;20471;-58
2022/01/26 00:29:11;;;;;;;27.90;12.70;;;-3.50;54.50;;;-4.08;46.05;95746.84;5038594;28;20445;-58
2022/01/26 00:39:59;;;;;;;22.07;13.87;;;-3.60;54.60;;;-4.27;45.65;95753.22;5036558;28;20491;-58
2022/01/26 00:42:31;;;;;;;42.93;15.70;;;-3.70;54.50;;;-4.33;46.41;95749.88;5041986;28;20996;-58
2022/01/26 00:44:58;;;;;;;34.20;14.50;;;-3.70;54.60;;;-4.37;46.57;95748.25;5037758;28;20503;-57
2022/01/26 00:47:26;;;;;;;35.60;15.37;;;-3.80;54.60;;;-4.40;46.00;95750.00;5039398;28;20453;-58
2022/01/26 00:49:58;;;;;;;26.93;14.47;;;-3.80;54.80;;;-4.43;46.85;95748.38;5038190;28;20538;-58
2022/01/26 00:52:37;;;;;;;32.53;13.50;;;-3.80;55.00;;;-4.44;46.10;95751.78;5042393;28;20452;-58
2022/01/26 00:55:05;;;;;;;23.57;12.50;;;-3.90;54.90;;;-4.46;46.35;95752.69;5039643;28;20452;-58
2022/01/26 00:57:32;;;;;;;19.57;10.70;;;-3.90;54.90;;;-4.47;46.82;95746.72;5036583;28;20916;-58
2022/01/26 01:00:00;;;;;;;28.63;12.87;;;-3.90;55.20;;;-4.46;46.70;95747.56;5035496;28;20468;-59
2022/01/26 01:02:27;;;;;;;22.67;10.70;;;-3.90;55.20;;;-4.45;46.93;95739.81;5039143;28;20491;-58
2022/01/26 01:04:58;;;;;;;25.10;11.37;;;-3.90;55.60;;;-4.43;46.36;95742.38;5039709;28;20839;-57
2022/01/26 01:07:26;;;;;;;23.10;11.43;;;-3.80;55.90;;;-4.42;46.48;95738.94;5031388;28;20456;-58
2022/01/26 01:09:53;;;;;;;20.73;11.20;;;-3.80;55.80;;;-4.40;46.96;95742.31;5032544;28;20449;-58
2022/01/26 01:12:20;;;;;;;21.93;11.23;;;-3.80;55.80;;;-4.39;47.29;95733.75;5036906;28;20467;-58
2022/01/26 01:14:48;;;;;;;25.83;12.63;;;-3.80;55.80;;;-4.39;46.80;95736.31;5031936;28;21001;-59
2022/01/26 01:17:23;;;;;;;31.20;12.20;;;-3.80;55.60;;;-4.39;47.04;95734.56;5037767;28;20511;-58
2022/01/26 01:20:08;;;;;;;32.43;12.30;;;-3.80;55.50;;;-4.39;46.24;95738.88;5040034;28;20539;-59
2022/01/26 01:22:50;;;;;;;26.37;13.20;;;-3.80;55.50;;;-4.42;46.75;95734.63;5038291;28;20456;-58
2022/01/26 01:28:23;;;;;;;32.23;13.50;;;-3.90;55.40;;;-4.46;47.23;95733.00;5018685;28;20786;-58
2022/01/26 01:30:55;;;;;;;25.10;13.33;;;-3.90;55.40;;;-4.45;46.31;95732.13;5038314;28;20868;-58
2022/01/26 01:33:29;;;;;;;27.63;12.23;;;-3.90;55.40;;;-4.47;46.59;95731.31;5043999;28;20852;-57
2022/01/26 01:35:58;;;;;;;27.63;14.07;;;-3.90;55.70;;;-4.51;46.71;95729.66;5034535;28;20472;-57
2022/01/26 01:38:29;;;;;;;22.53;11.50;;;-3.90;55.80;;;-4.55;46.90;95722.91;5039491;28;20546;-58
2022/01/26 01:40:57;;;;;;;26.00;11.40;;;-4.00;55.70;;;-4.58;46.73;95722.97;5033510;28;20476;-58
2022/01/26 01:43:24;;;;;;;23.50;11.90;;;-4.00;55.70;;;-4.59;47.37;95726.41;5038762;28;20453;-57
2022/01/26 01:45:53;;;;;;;29.77;13.27;;;-4.00;55.70;;;-4.59;46.48;95721.28;5036870;28;20475;-58
2022/01/26 01:48:23;;;;;;;22.77;11.40;;;-4.00;55.90;;;-4.60;46.65;95719.56;5038860;28;20560;-58
2022/01/26 01:50:51;;;;;;;25.43;11.80;;;-4.00;55.90;;;-4.61;47.35;95717.91;5032989;28;20489;-58
2022/01/26 01:53:29;;;;;;;20.53;11.57;;;-4.00;56.10;;;-4.59;47.58;95721.28;5034404;28;20459;-58
2022/01/26 01:55:59;;;;;;;23.27;11.90;;;-4.00;56.20;;;-4.61;47.19;95712.75;5040602;28;20987;-58
2022/01/26 01:58:26;;;;;;;27.83;12.47;;;-4.00;56.40;;;-4.62;47.06;95714.47;5038740;28;21087;-57
2022/01/26 02:00:55;;;;;;;26.80;11.60;;;-4.00;56.40;;;-4.61;47.30;95703.31;5041178;28;20579;-58
2022/01/26 02:03:24;;;;;;;19.63;10.70;;;-4.00;56.40;;;-4.58;47.97;95707.56;5043858;28;20444;-57
2022/01/26 02:05:51;;;;;;;23.10;10.00;;;-4.00;56.40;;;-4.54;47.54;95698.91;5043776;28;20458;-59
2022/01/26 02:08:18;;;;;;;24.00;12.37;;;-4.00;56.50;;;-4.52;47.22;95699.75;5042261;28;20542;-59
2022/01/26 02:10:46;;;;;;;27.67;11.60;;;-3.90;56.60;;;-4.50;47.60;95698.00;5042751;28;20472;-58
2022/01/26 02:13:20;;;;;;;24.80;12.33;;;-3.90;56.50;;;-4.48;47.10;95693.66;5041274;28;21027;-58
2022/01/26 02:15:54;;;;;;;22.70;10.80;;;-3.90;56.50;;;-4.47;47.56;95695.38;5039812;28;20518;-58
2022/01/26 02:18:40;;;;;;;20.43;10.90;;;-3.90;56.70;;;-4.43;47.80;95693.59;5038210;28;20508;-58
2022/01/26 02:21:42;;;;;;;19.17;9.20;;;-3.90;56.70;;;-4.40;47.56;95694.38;5039267;28;20494;-57
2022/01/26 02:52:10;;;;;;;40.93;17.87;;;-3.60;57.30;;;-4.22;47.93;95682.06;5015280;28;20475;-58
2022/01/26 02:54:55;;;;;;;31.53;16.20;;;-3.60;57.40;;;-4.19;48.45;95687.13;5038393;28;20449;-58
2022/01/26 02:57:43;;;;;;;34.33;16.67;;;-3.60;57.60;;;-4.17;47.91;95687.94;5039288;28;20472;-58
2022/01/26 03:00:18;;;;;;;33.40;14.20;;;-3.60;57.60;;;-4.15;48.47;95686.19;5038091;28;20502;-57
2022/01/26 03:02:51;;;;;;;25.13;13.90;;;-3.60;57.60;;;-4.11;48.18;95690.38;5038228;28;20440;-57
2022/01/26 03:05:21;;;;;;;24.97;12.80;;;-3.50;57.90;;;-4.08;48.70;95692.88;5037177;28;20507;-57
2022/01/26 03:07:53;;;;;;;27.93;11.67;;;-3.50;58.10;;;-4.01;48.72;95686.75;5036430;28;20889;-57
2022/01/26 03:10:30;;;;;;;23.93;10.17;;;-3.50;58.10;;;-3.94;48.75;95689.19;5043057;28;20475;-59
2022/01/26 03:13:03;;;;;;;20.07;11.43;;;-3.40;58.30;;;-3.89;48.73;95687.38;5035221;28;20783;-57
2022/01/26 03:15:35;;;;;;;29.63;13.60;;;-3.40;58.30;;;-3.83;48.95;95689.81;5040921;28;20468;-59
2022/01/26 03:20:51;;;;;;;22.27;12.17;;;-3.20;58.70;;;-3.72;48.50;95682.69;5023106;28;20846;-57
2022/01/26 03:29:10;;;;;;;21.53;10.17;;;-3.10;58.70;;;-3.55;48.68;95677.19;5036468;28;20590;-58
2022/01/26 03:34:22;;;;;;;23.17;9.53;;;-2.90;58.40;;;-3.34;47.77;95686.13;5042954;28;20444;-58
2022/01/26 03:36:50;;;;;;;16.00;10.20;;;-2.80;58.70;;;-3.29;47.95;95689.44;5041789;28;20489;-59
2022/01/26 03:39:20;;;;;;;25.00;10.77;;;-2.80;58.50;;;-3.21;48.45;95670.41;5039586;28;20522;-59
2022/01/26 03:41:52;;;;;;;19.70;10.63;;;-2.70;58.30;;;-3.14;48.54;95677.94;5041666;28;20786;-58
2022/01/26 03:44:20;;;;;;;18.00;9.60;;;-2.60;58.30;;;-3.09;48.21;95675.25;5039713;28;20987;-57
2022/01/26 03:46:48;;;;;;;23.67;11.50;;;-2.60;58.10;;;-3.03;47.92;95672.53;5038131;28;20469;-58
2022/01/26 03:49:15;;;;;;;20.43;11.20;;;-2.50;58.00;;;-3.00;47.58;95671.63;5039795;28;20452;-57
2022/01/26 03:51:43;;;;;;;18.83;9.77;;;-2.50;58.10;;;-2.97;48.17;95668.97;5038936;28;20541;-57
2022/01/26 03:54:10;;;;;;;25.40;11.90;;;-2.50;58.20;;;-2.93;48.40;95663.72;5044848;28;20463;-58
2022/01/26 03:56:38;;;;;;;20.23;11.00;;;-2.40;58.00;;;-2.89;48.00;95670.44;5035664;28;21012;-58
2022/01/26 03:59:08;;;;;;;29.50;10.50;;;-2.40;58.00;;;-2.83;48.11;95666.06;5034177;28;20496;-58
2022/01/26 04:01:35;;;;;;;19.20;10.37;;;-2.30;57.90;;;-2.80;47.52;95659.09;5038858;28;20566;-58
2022/01/26 04:04:03;;;;;;;17.67;9.83;;;-2.30;57.90;;;-2.76;47.49;95652.13;5037637;28;20452;-58
2022/01/26 04:06:31;;;;;;;14.87;9.33;;;-2.30;57.70;;;-2.74;48.27;95658.94;5035288;28;20468;-58
2022/01/26 04:08:58;;;;;;;24.07;11.00;;;-2.20;57.90;;;-2.69;48.04;95660.53;5039746;28;20453;-58
2022/01/26 04:11:34;;;;;;;21.77;9.80;;;-2.20;57.80;;;-2.68;47.03;95654.50;5036232;28;20494;-57
2022/01/26 04:14:04;;;;;;;15.20;8.23;;;-2.20;57.50;;;-2.64;47.63;95661.25;5036452;28;20449;-58
2022/01/26 04:16:33;;;;;;;20.13;10.63;;;-2.10;57.80;;;-2.62;48.16;95655.16;5033517;28;20511;-58
2022/01/26 04:19:00;;;;;;;14.70;8.97;;;-2.10;57.90;;;-2.59;47.56;95655.06;5037081;28;20829;-58
2022/01/26 04:21:38;;;;;;;22.93;11.53;;;-2.10;57.50;;;-2.56;47.22;95647.28;5041416;28;20473;-56
2022/01/26 04:24:12;;;;;;;18.90;10.70;;;-2.10;57.50;;;-2.55;47.21;95650.72;5037534;28;20993;-58
2022/01/26 04:26:46;;;;;;;15.57;10.10;;;-2.10;57.20;;;-2.53;47.08;95648.94;5036579;28;20882;-57
2022/01/26 04:29:18;;;;;;;21.80;12.10;;;-2.00;57.30;;;-2.50;48.40;95653.16;5036239;28;20453;-58
2022/01/26 04:31:47;;;;;;;24.57;11.77;;;-2.00;57.70;;;-2.46;47.16;95644.44;5037809;28;20610;-57
2022/01/26 04:34:14;;;;;;;17.53;10.60;;;-2.00;57.60;;;-2.45;47.39;95639.25;5040330;28;20455;-58
2022/01/26 04:36:47;;;;;;;24.43;10.60;;;-2.00;57.60;;;-2.42;47.96;95638.34;5038120;28;20676;-59
2022/01/26 04:39:19;;;;;;;19.47;10.23;;;-2.00;57.50;;;-2.40;47.07;95642.56;5035744;28;20480;-57
2022/01/26 04:41:51;;;;;;;15.80;9.60;;;-1.90;57.50;;;-2.38;47.78;95645.94;5038018;28;20538;-58
2022/01/26 04:44:23;;;;;;;17.33;9.77;;;-1.90;57.30;;;-2.37;47.74;95644.19;5036711;28;20511;-57
2022/01/26 04:46:52;;;;;;;17.17;10.10;;;-1.90;57.30;;;-2.37;47.48;95639.91;5044575;28;20526;-59
2022/01/26 04:49:19;;;;;;;22.03;10.10;;;-1.90;57.30;;;-2.36;46.88;95636.41;5039074;28;20457;-58
2022/01/26 04:51:46;;;;;;;16.50;9.23;;;-1.90;57.20;;;-2.38;47.41;95645.09;5038373;28;20669;-57
2022/01/26 04:54:14;;;;;;;13.77;9.00;;;-1.90;57.70;;;-2.34;49.44;95646.69;5039807;28;20461;-58
2022/01/26 04:56:42;;;;;;;19.70;10.30;;;-1.90;60.00;;;-2.30;48.92;95648.28;5042675;28;20483;-55
2022/01/26 04:59:09;;;;;;;26.93;10.70;;;-1.90;59.50;;;-2.28;47.65;95636.22;5038891;28;20484;-57
2022/01/26 05:01:37;;;;;;;25.83;10.90;;;-1.80;58.70;;;-2.23;47.47;95641.22;5040051;28;20479;-56
2022/01/26 05:04:05;;;;;;;18.87;9.70;;;-1.80;58.10;;;-2.20;47.36;95646.28;5042382;28;20448;-55
2022/01/26 05:06:33;;;;;;;19.10;9.57;;;-1.70;58.30;;;-2.16;48.76;95642.75;5036479;28;20841;-57
2022/01/26 05:09:00;;;;;;;20.97;9.93;;;-1.70;59.20;;;-2.11;48.53;95656.34;5039349;28;20460;-55
2022/01/26 05:11:34;;;;;;;21.20;9.47;;;-1.70;59.10;;;-2.07;47.59;95646.81;5035289;28;20492;-57
2022/01/26 05:14:01;;;;;;;16.03;9.43;;;-1.60;58.30;;;-2.06;47.83;95649.34;5035188;28;20445;-58
2022/01/26 05:16:28;;;;;;;14.27;9.30;;;-1.60;58.20;;;-2.03;47.40;95645.81;5041152;28;20472;-59
2022/01/26 05:18:56;;;;;;;18.40;9.30;;;-1.60;58.00;;;-2.01;47.66;95649.22;5038851;28;20501;-57
2022/01/26 05:21:26;;;;;;;16.93;9.37;;;-1.60;58.40;;;-1.99;47.57;95648.25;5032477;28;20476;-58
2022/01/26 05:23:53;;;;;;;28.60;11.33;;;-1.60;58.40;;;-1.94;47.14;95650.69;5035304;28;20871;-58
2022/01/26 05:26:20;;;;;;;18.73;8.90;;;-1.50;58.10;;;-1.93;47.64;95652.41;5040935;28;21085;-57
2022/01/26 05:28:48;;;;;;;15.33;9.03;;;-1.50;58.00;;;-1.91;47.45;95653.19;5034098;28;20451;-57
2022/01/26 05:31:15;;;;;;;17.17;9.00;;;-1.50;57.90;;;-1.89;47.38;95646.28;5033036;28;20502;-56
2022/01/26 05:33:43;;;;;;;18.20;9.83;;;-1.40;57.90;;;-1.89;47.57;95648.84;5032808;28;20870;-58
2022/01/26 05:36:10;;;;;;;22.60;9.20;;;-1.40;57.60;;;-1.88;47.14;95647.09;5037463;28;20851;-58
2022/01/26 05:38:38;;;;;;;18.77;10.27;;;-1.40;57.40;;;-1.87;47.39;95635.91;5036137;28;20492;-58
2022/01/26 05:41:06;;;;;;;17.17;9.00;;;-1.40;57.30;;;-1.85;46.49;95641.84;5039576;28;20522;-58
2022/01/26 05:43:33;;;;;;;17.90;8.70;;;-1.40;57.20;;;-1.88;47.31;95635.06;5037861;28;20452;-58
2022/01/26 05:46:05;;;;;;;19.03;10.47;;;-1.40;56.90;;;-1.89;46.56;95633.38;5035387;28;20480;-59
2022/01/26 05:48:34;;;;;;;17.10;10.00;;;-1.40;57.00;;;-1.88;47.20;95636.78;5042315;28;20789;-59
2022/01/26 05:51:06;;;;;;;16.37;9.60;;;-1.40;57.20;;;-1.87;47.54;95636.75;5038148;28;20874;-58
2022/01/26 05:53:34;;;;;;;17.57;9.90;;;-1.40;57.40;;;-1.84;47.57;95639.22;5040014;28;20963;-58
2022/01/26 05:56:03;;;;;;;19.70;10.10;;;-1.40;57.50;;;-1.81;47.11;95635.72;5038286;28;20904;-59
2022/01/26 05:58:30;;;;;;;23.67;10.93;;;-1.40;57.60;;;-1.79;47.44;95641.69;5039974;28;20445;-59
2022/01/26 06:00:59;;;;;;;22.93;10.03;;;-1.30;57.80;;;-1.76;48.04;95640.75;5036232;28;20517;-58
2022/01/26 06:03:26;;;;;;;19.40;10.73;;;-1.30;58.00;;;-1.73;47.38;95638.06;5032767;28;20455;-59
2022/01/26 06:05:54;;;;;;;22.20;10.87;;;-1.30;57.90;;;-1.71;47.80;95638.88;5039668;28;20474;-58
2022/01/26 06:08:22;;;;;;;19.73;11.23;;;-1.20;58.20;;;-1.67;46.92;95650.78;5036818;28;20526;-59
2022/01/26 06:10:49;;;;;;;22.10;10.63;;;-1.20;57.90;;;-1.67;47.97;95645.63;5035760;28;20700;-59
2022/01/26 06:13:18;;;;;;;17.67;10.20;;;-1.20;58.10;;;-1.69;47.88;95644.81;5036687;28;20456;-60
2022/01/26 06:15:47;;;;;;;29.30;10.97;;;-1.20;58.10;;;-1.69;47.75;95643.09;5034477;28;20472;-58
2022/01/26 06:18:14;;;;;;;17.33;10.20;;;-1.20;58.10;;;-1.71;47.21;95644.03;5039456;28;20453;-59
2022/01/26 06:20:42;;;;;;;18.00;11.13;;;-1.20;58.00;;;-1.74;47.49;95639.78;5034839;28;21013;-58
2022/01/26 06:23:09;;;;;;;21.30;9.80;;;-1.30;58.10;;;-1.76;47.60;95636.44;5035357;28;20975;-58
2022/01/26 06:25:37;;;;;;;21.90;10.83;;;-1.30;58.60;;;-1.76;47.99;95633.00;5032896;28;20472;-58
2022/01/26 06:28:08;;;;;;;23.83;12.17;;;-1.30;59.60;;;-1.78;48.30;95632.19;5037895;28;20890;-58
2022/01/26 06:30:37;;;;;;;20.53;11.17;;;-1.30;58.80;;;-1.81;47.94;95631.41;5036448;28;20468;-58
2022/01/26 06:33:05;;;;;;;21.93;11.60;;;-1.30;59.00;;;-1.84;48.42;95628.91;5035214;28;20956;-60
2022/01/26 06:35:32;;;;;;;18.70;8.83;;;-1.40;59.30;;;-1.85;48.60;95634.97;5038974;28;20504;-59
2022/01/26 06:37:59;;;;;;;16.47;10.10;;;-1.40;59.50;;;-1.88;48.75;95629.91;5035088;28;20973;-59
2022/01/26 06:40:27;;;;;;;19.30;11.33;;;-1.40;59.60;;;-1.88;49.28;95632.47;5035433;28;20907;-59
2022/01/26 06:42:57;;;;;;;19.07;10.50;;;-1.40;60.00;;;-1.88;48.72;95632.47;5038756;28;20452;-59
2022/01/26 06:45:28;;;;;;;26.03;11.80;;;-1.40;59.90;;;-1.90;48.88;95629.09;5039736;28;20492;-58
2022/01/26 06:48:24;;;;;;;21.33;11.30;;;-1.40;59.80;;;-1.90;49.06;95633.44;5040849;28;20455;-59
2022/01/26 06:50:49;;;;;;;27.30;10.43;;;-1.40;60.40;;;-1.93;49.71;95630.94;5039523;28;20472;-59
2022/01/26 06:53:16;;;;;;;18.90;10.77;;;-1.50;60.40;;;-1.94;49.91;95642.97;5037754;28;20461;-59
2022/01/26 06:55:44;;;;;;;18.50;9.53;;;-1.50;61.20;;;-1.94;49.68;95644.72;5040064;28;20484;-58
2022/01/26 06:58:11;;;;;;;27.10;11.20;;;-1.50;61.00;;;-1.95;49.36;95651.59;5043429;28;20456;-58
2022/01/26 07:00:38;;;;;;;21.37;11.20;;;-1.50;61.40;;;-1.95;49.75;95654.19;5041382;28;20494;-58
2022/01/26 07:03:07;;;;;;;23.73;12.03;;;-1.50;61.80;;;-1.93;51.11;95649.81;5040107;28;20456;-58
2022/01/26 07:05:34;;;;;;;28.27;11.43;;;-1.50;62.80;;;-1.91;50.52;95654.94;5041747;28;20854;-58
2022/01/26 07:08:02;;;;;;;24.03;12.17;;;-1.50;63.10;;;-1.88;51.07;95653.09;5039757;28;20490;-59
2022/01/26 07:10:31;;;;;;;23.33;10.20;;;-1.40;63.40;;;-1.82;51.67;95646.91;5037127;28;20507;-58
2022/01/26 07:12:59;;;;;;;17.80;10.03;;;-1.40;64.50;;;-1.77;50.65;95639.06;5037636;28;20456;-58
2022/01/26 07:23:49;;;;;;;21.20;11.60;;;-1.20;63.90;;;-1.62;51.50;95643.75;5037655;28;20459;-58
2022/01/26 07:26:16;;;;;;;16.93;10.47;;;-1.20;65.20;;;-1.56;51.04;95638.41;5041937;28;20822;-58
2022/01/26 07:28:44;;;;;;;15.70;9.60;;;-1.20;63.90;;;-1.49;50.65;95645.06;5041939;28;20517;-63
2022/01/26 07:31:11;;;;;;;21.10;11.47;;;-1.00;64.50;;;-1.42;51.53;95639.72;5036593;28;20515;-59
2022/01/26 07:33:42;;;;;;;26.10;10.63;;;-1.00;64.80;;;-1.39;50.58;95643.03;5038830;28;20536;-58
2022/01/26 07:36:09;;;;;;;22.87;9.80;;;-1.00;64.20;;;-1.38;50.82;95646.44;5039691;28;20483;-59
2022/01/26 07:38:36;;;;;;;21.47;10.83;;;-0.90;64.40;;;-1.36;51.07;95657.56;5038412;28;20513;-59
2022/01/26 07:41:04;;;;;;;33.27;12.33;;;-0.90;65.00;;;-1.34;51.14;95654.03;5039471;28;20496;-59
2022/01/26 07:43:31;;;;;;;26.30;11.40;;;-0.90;64.70;;;-1.27;51.52;95655.53;5040726;28;20440;-58
2022/01/26 07:45:58;;;;;;;14.70;10.20;;;-0.90;65.00;;;-1.23;51.03;95653.69;5043836;28;20464;-58
2022/01/26 07:48:26;;;;;;;22.00;12.03;;;-0.80;65.30;;;-1.20;51.47;95658.75;5035894;28;20453;-58
2022/01/26 07:50:56;;;;;;;23.37;10.77;;;-0.80;66.20;;;-1.14;52.52;95649.97;5036234;28;20491;-58
2022/01/26 07:53:23;;;;;;;16.63;9.30;;;-0.70;66.90;;;-1.10;52.96;95657.56;5032370;28;20470;-58
2022/01/26 07:55:50;;;;;;;23.37;9.50;;;-0.70;68.50;;;-1.03;52.17;95653.06;5040437;28;20480;-59
2022/01/26 07:58:19;;;;;;;23.60;9.40;;;-0.60;67.10;;;-0.98;51.96;95656.31;5038754;28;20453;-59
2022/01/26 08:00:47;;;;;;;17.67;8.77;;;-0.60;67.00;;;-0.93;52.49;95649.28;5037304;28;20546;-59
2022/01/26 08:03:14;;;;;;;14.90;9.27;;;-0.50;67.70;;;-0.89;52.37;95657.75;5039125;28;20471;-58
2022/01/26 08:05:42;;;;;;;23.30;12.33;;;-0.50;68.40;;;-0.84;52.66;95660.19;5038028;28;20874;-58
2022/01/26 08:08:11;;;;;;;20.47;10.70;;;-0.50;68.50;;;-0.80;52.14;95654.03;5037531;28;21003;-58
2022/01/26 08:10:38;;;;;;;19.27;10.63;;;-0.40;68.00;;;-0.76;52.78;95646.13;5037091;28;20468;-58
2022/01/26 08:13:06;;;;;;;20.20;9.70;;;-0.40;68.70;;;-0.72;52.02;95652.03;5039597;28;20461;-58
2022/01/26 08:15:33;;;;;;;19.07;11.60;;;-0.30;67.20;;;-0.62;52.10;95652.53;5036467;28;21400;-58
2022/01/26 08:18:02;;;;;;;22.20;11.20;;;-0.20;67.30;;;-0.56;51.92;95652.34;5031599;28;20854;-59
2022/01/26 08:20:30;;;;;;;24.40;10.80;;;-0.20;67.60;;;-0.50;52.27;95654.69;5038118;28;20865;-59
2022/01/26 08:22:57;;;;;;;20.63;10.53;;;-0.10;67.50;;;-0.45;52.73;95655.41;5038927;28;20535;-58
2022/01/26 08:25:28;;;;;;;22.00;11.80;;;-0.10;67.60;;;-0.39;51.87;95650.03;5035734;28;20469;-59
2022/01/26 08:28:02;;;;;;;20.87;10.43;;;0.00;66.90;;;-0.32;52.34;95649.81;5037956;28;20638;-59
2022/01/26 08:30:31;;;;;;;25.27;11.70;;;0.00;67.60;;;-0.25;52.54;95659.00;5039678;28;20465;-59
2022/01/26 08:32:58;;;;;;;23.80;11.40;;;0.10;68.30;;;-0.22;53.39;95651.16;5032729;28;20448;-59
2022/01/26 08:35:26;;;;;;;16.93;9.80;;;0.20;69.20;;;-0.18;52.09;95652.72;5036887;28;20484;-59
2022/01/26 08:37:53;;;;;;;20.77;10.07;;;0.20;67.20;;;-0.13;52.86;95650.81;5035249;28;20453;-59
2022/01/26 08:40:20;;;;;;;23.43;12.30;;;0.30;68.60;;;-0.09;52.22;95652.41;5034160;28;21195;-58
2022/01/26 08:42:49;;;;;;;24.50;12.00;;;0.30;68.30;;;-0.05;52.47;95653.97;5035301;28;20451;-59
2022/01/26 08:45:16;;;;;;;25.83;11.60;;;0.30;68.40;;;-0.02;52.12;95656.47;5032251;28;20449;-59
2022/01/26 08:47:44;;;;;;;18.53;10.47;;;0.40;68.00;;;0.02;51.31;95659.75;5032544;28;20463;-59
2022/01/26 08:50:11;;;;;;;17.10;10.07;;;0.40;67.30;;;0.06;52.02;95658.72;5039833;28;20467;-59
2022/01/26 08:52:39;;;;;;;15.70;8.30;;;0.40;67.80;;;0.07;51.69;95657.00;5036689;28;20447;-59
2022/01/26 08:55:08;;;;;;;17.93;9.33;;;0.50;68.00;;;0.07;52.38;95655.25;5040546;28;20453;-59
2022/01/26 08:57:35;;;;;;;15.93;9.63;;;0.50;68.40;;;0.10;52.31;95649.13;5040893;28;20466;-59
2022/01/26 09:00:05;;;;;;;19.80;11.10;;;0.50;68.60;;;0.14;52.44;95658.44;5034244;28;20515;-59
2022/01/26 09:02:32;;;;;;;25.73;9.03;;;0.50;68.80;;;0.16;52.95;95654.91;5034445;28;20566;-59
2022/01/26 09:05:04;;;;;;;19.33;9.73;;;0.50;69.40;;;0.21;52.52;95659.91;5035327;28;20448;-59
2022/01/26 09:07:31;;;;;;;22.97;9.20;;;0.60;69.40;;;0.28;53.21;95660.50;5037778;28;20480;-58
2022/01/26 09:10:00;;;;;;;13.10;8.57;;;0.60;70.20;;;0.31;52.74;95658.69;5036099;28;20516;-59
2022/01/26 09:12:28;;;;;;;15.20;8.77;;;0.70;69.70;;;0.34;52.88;95666.31;5044136;28;20505;-58
2022/01/26 09:15:00;;;;;;;11.70;7.43;;;0.70;69.80;;;0.32;52.36;95662.94;5037779;28;20453;-58
2022/01/26 09:17:31;;;;;;;12.57;8.50;;;0.70;69.30;;;0.33;52.41;95661.22;5038103;28;20827;-59
2022/01/26 09:20:00;;;;;;;11.50;8.10;;;0.70;69.60;;;0.34;52.87;95663.72;5037606;28;21035;-59
2022/01/26 09:22:28;;;;;;;14.47;8.90;;;0.70;70.50;;;0.34;52.60;95666.31;5039665;28;20522;-59
2022/01/26 09:24:55;;;;;;;12.30;8.00;;;0.70;70.30;;;0.34;53.10;95670.63;5036562;28;20473;-60
2022/01/26 09:27:22;;;;;;;16.87;10.47;;;0.70;69.60;;;0.32;52.72;95664.69;5040894;28;21020;-59
2022/01/26 09:29:50;;;;;;;15.87;9.57;;;0.70;69.70;;;0.33;52.66;95664.63;5035625;28;20492;-59
2022/01/26 09:32:18;;;;;;;17.10;7.90;;;0.70;69.80;;;0.32;53.00;95668.09;5033154;28;20467;-59
2022/01/26 09:34:46;;;;;;;16.27;9.30;;;0.70;70.50;;;0.31;53.40;95663.84;5037895;28;20819;-59
2022/01/26 09:37:16;;;;;;;20.83;8.83;;;0.70;71.10;;;0.33;54.26;95656.03;5036995;28;20513;-59
2022/01/26 09:39:45;;;;;;;15.63;8.17;;;0.70;71.40;;;0.39;53.41;95654.94;5037748;28;20456;-58
2022/01/26 09:42:12;;;;;;;11.90;8.33;;;0.70;70.90;;;0.44;53.02;95653.03;5038688;28;20473;-59
2022/01/26 09:44:40;;;;;;;15.10;8.40;;;0.70;71.30;;;0.50;53.62;95655.38;5035795;28;20451;-59
2022/01/26 09:47:07;;;;;;;13.40;8.30;;;0.80;71.60;;;0.56;53.77;95643.94;5037977;28;20501;-58
2022/01/26 09:49:36;;;;;;;11.33;7.60;;;0.90;71.60;;;0.62;53.52;95643.69;5033534;28;20456;-59
2022/01/26 09:52:13;;;;;;;16.77;8.53;;;1.00;72.00;;;0.68;53.58;95644.31;5039656;28;20468;-59
2022/01/26 09:54:40;;;;;;;14.43;8.30;;;1.00;71.10;;;0.74;53.30;95644.97;5037869;28;20952;-59
2022/01/26 09:57:08;;;;;;;13.97;8.97;;;1.10;71.10;;;0.77;53.58;95637.06;5033615;28;20478;-59
2022/01/26 09:59:35;;;;;;;13.07;8.87;;;1.10;72.00;;;0.83;53.40;95635.06;5036979;28;20467;-58
2022/01/26 10:02:02;;;;;;;24.70;9.80;;;1.20;71.10;;;0.92;52.70;95638.22;5037199;28;20996;-59
2022/01/26 10:04:33;;;;;;;19.33;9.80;;;1.20;71.40;;;0.99;52.72;95632.72;5038682;28;20453;-58
2022/01/26 10:07:06;;;;;;;15.37;8.83;;;1.30;70.80;;;1.09;53.20;95634.94;5040084;28;20504;-57
2022/01/26 10:15:32;;;;;;;16.67;9.43;;;1.50;71.80;;;1.18;53.47;95630.19;5037689;28;20816;-58
2022/01/26 10:18:09;;;;;;;13.53;8.40;;;1.50;72.00;;;1.17;53.08;95636.28;5036290;28;20451;-59
2022/01/26 10:20:42;;;;;;;15.10;9.23;;;1.50;72.00;;;1.16;53.96;95628.56;5036539;28;20494;-58
2022/01/26 10:23:16;;;;;;;13.10;8.03;;;1.50;72.60;;;1.15;54.07;95624.31;5039930;28;20440;-58
2022/01/26 10:25:44;;;;;;;11.30;7.13;;;1.50;71.50;;;1.16;52.96;95623.38;5042276;28;20463;-59
2022/01/26 10:28:13;;;;;;;15.70;9.90;;;1.50;72.00;;;1.19;53.28;95629.31;5040429;28;20451;-59
2022/01/26 10:30:45;;;;;;;13.83;8.20;;;1.50;72.60;;;1.21;54.09;95622.31;5041359;28;20495;-58
2022/01/26 10:33:13;;;;;;;26.43;7.90;;;1.60;72.70;;;1.20;53.88;95614.59;5039073;28;20548;-58
2022/01/26 10:35:41;;;;;;;14.80;9.20;;;1.60;73.80;;;1.22;54.03;95620.53;5037177;28;20475;-58
2022/01/26 10:38:09;;;;;;;12.10;8.00;;;1.60;73.80;;;1.27;54.39;95612.56;5042712;28;20803;-58
2022/01/26 10:40:38;;;;;;;16.20;9.80;;;1.60;74.20;;;1.30;54.26;95615.03;5041759;28;20518;-58
2022/01/26 10:43:09;;;;;;;16.43;8.87;;;1.60;74.10;;;1.30;54.62;95609.84;5038149;28;20572;-59
2022/01/26 10:45:48;;;;;;;16.40;8.73;;;1.60;73.90;;;1.34;53.53;95616.59;5039624;28;20488;-58
2022/01/26 10:48:24;;;;;;;12.10;8.40;;;1.70;73.30;;;1.32;55.03;95610.66;5036409;28;20511;-58
2022/01/26 10:51:31;;;;;;;14.97;9.10;;;1.70;74.80;;;1.33;54.74;95612.31;5040072;28;20483;-59
2022/01/26 10:54:10;;;;;;;13.17;8.83;;;1.70;74.80;;;1.38;55.02;95618.13;5040879;28;20839;-58
2022/01/26 10:56:38;;;;;;;15.50;7.03;;;1.70;74.40;;;1.40;55.63;95608.56;5040522;28;20468;-58
2022/01/26 10:59:06;;;;;;;14.50;7.60;;;1.70;75.20;;;1.41;54.88;95600.72;5037247;28;20465;-58
2022/01/26 11:01:37;;;;;;;14.10;9.27;;;1.70;74.80;;;1.47;56.13;95598.75;5037659;28;21201;-59
2022/01/26 11:04:05;;;;;;;14.70;7.47;;;1.80;75.00;;;1.52;55.36;95597.66;5037429;28;20501;-60
2022/01/26 11:06:32;;;;;;;12.87;8.57;;;1.80;75.00;;;1.63;54.51;95596.31;5035721;28;21011;-59
2022/01/26 11:09:07;;;;;;;10.77;7.50;;;1.90;75.00;;;1.76;54.54;95600.91;5043930;28;20440;-59
2022/01/26 11:11:35;;;;;;;12.80;7.80;;;2.00;74.80;;;1.86;54.22;95597.91;5039251;28;20491;-58
2022/01/26 11:14:13;;;;;;;14.43;8.57;;;2.20;74.40;;;1.93;54.51;95594.13;5037096;28;20449;-59
2022/01/26 11:16:49;;;;;;;11.80;8.13;;;2.20;74.40;;;1.99;54.92;95595.63;5038362;28;20578;-59
2022/01/26 11:19:17;;;;;;;10.47;7.70;;;2.30;74.30;;;2.08;53.79;95593.44;5038398;28;20527;-59
2022/01/26 11:21:44;;;;;;;10.20;7.67;;;2.40;74.10;;;2.17;54.91;95591.31;5037640;28;20943;-59
2022/01/26 11:24:19;;;;;;;11.07;7.23;;;2.40;74.60;;;2.22;53.42;95595.41;5036760;28;20451;-58
2022/01/26 11:26:47;;;;;;;9.53;7.77;;;2.50;73.40;;;2.24;54.23;95577.16;5037866;28;20539;-59
2022/01/26 11:29:26;;;;;;;10.33;6.90;;;2.50;73.60;;;2.35;54.61;95581.84;5039973;28;20476;-59
2022/01/26 11:32:10;;;;;;;11.27;7.67;;;2.60;74.40;;;2.47;53.79;95582.09;5039676;28;20476;-58